Time;durP1;ratioP1;P1;durP2;ratioP2;P2;SDS_P1;SDS_P2;PMS_P1;PMS_P2;Temp;Humidity;BMP_temperature;BMP_pressure;BME280_temperature;BME280_humidity;BME280_pressure;Samples;Min_cycle;Max_cycle;Signal;HPM_P1;HPM_P2
2022/11/05 00:09:28;;;;;;;10.85;4.65;;;;;;;;;;5092812;28;20648;-51
2022/11/05 00:17:09;;;;;;;13.75;5.35;;;;;;;;;;5047176;28;20706;-51
2022/11/05 00:19:39;;;;;;;9.60;4.05;;;;;;;;;;5039860;28;20056;-55
2022/11/05 00:27:40;;;;;;;9.23;4.40;;;;;;;;;;5084494;28;20051;-53
2022/11/05 00:30:22;;;;;;;8.90;4.28;;;;;;;;;;5093014;28;20047;-55
2022/11/05 00:32:52;;;;;;;10.38;5.85;;;;;;;;;;5092778;28;20052;-53
2022/11/05 00:35:30;;;;;;;7.70;4.28;;;;;;;;;;5083303;28;20136;-54
2022/11/05 00:38:02;;;;;;;13.93;5.35;;;;;;;;;;5092733;28;20338;-52
2022/11/05 00:40:30;;;;;;;12.35;4.43;;;;;;;;;;5093042;28;20067;-52
2022/11/05 00:45:41;;;;;;;11.25;4.60;;;;;;;;;;5092952;28;20097;-52
2022/11/05 00:50:52;;;;;;;10.50;4.65;;;;;;;;;;5088802;28;20050;-53
2022/11/05 00:53:21;;;;;;;6.45;3.97;;;;;;;;;;5092761;28;20109;-52
2022/11/05 00:55:51;;;;;;;9.65;5.57;;;;;;;;;;5092080;28;20491;-54
2022/11/05 00:58:19;;;;;;;12.30;5.32;;;;;;;;;;5092218;28;20048;-51
2022/11/05 01:00:48;;;;;;;8.73;5.32;;;;;;;;;;5092403;28;20167;-55
2022/11/05 01:03:17;;;;;;;11.73;4.57;;;;;;;;;;5092748;28;20107;-52
2022/11/05 01:05:46;;;;;;;8.98;5.60;;;;;;;;;;5092752;28;20043;-51
2022/11/05 01:08:15;;;;;;;10.80;5.72;;;;;;;;;;5091789;28;20051;-52
2022/11/05 01:10:48;;;;;;;10.68;5.32;;;;;;;;;;5085850;28;20075;-52
2022/11/05 01:13:17;;;;;;;10.90;5.40;;;;;;;;;;5092439;28;20052;-53
2022/11/05 01:15:46;;;;;;;12.63;5.53;;;;;;;;;;5092724;28;20044;-51
2022/11/05 01:18:13;;;;;;;13.48;5.18;;;;;;;;;;5092447;28;20056;-51
2022/11/05 01:20:41;;;;;;;10.02;5.75;;;;;;;;;;5092487;28;20048;-51
2022/11/05 01:23:08;;;;;;;8.13;4.70;;;;;;;;;;5092451;28;20052;-54
2022/11/05 01:25:35;;;;;;;10.90;6.15;;;;;;;;;;5090852;28;20044;-52
2022/11/05 01:28:16;;;;;;;16.13;6.72;;;;;;;;;;5092377;28;20052;-51
2022/11/05 01:30:44;;;;;;;10.63;5.90;;;;;;;;;;5096960;28;20052;-52
2022/11/05 01:33:11;;;;;;;12.18;5.75;;;;;;;;;;5096033;28;20055;-52
2022/11/05 01:35:41;;;;;;;12.70;6.20;;;;;;;;;;5096551;28;20048;-52
2022/11/05 01:38:09;;;;;;;12.55;6.05;;;;;;;;;;5095902;28;20350;-54
2022/11/05 01:40:39;;;;;;;9.43;5.13;;;;;;;;;;5096112;28;20656;-51
2022/11/05 01:43:18;;;;;;;8.52;4.75;;;;;;;;;;5096329;28;20052;-52
2022/11/05 01:45:47;;;;;;;11.38;5.32;;;;;;;;;;5095989;28;20045;-51
2022/11/05 01:48:17;;;;;;;8.80;4.88;;;;;;;;;;5095687;28;20056;-51
2022/11/05 01:50:50;;;;;;;9.88;5.82;;;;;;;;;;5096105;28;20051;-51
2022/11/05 01:53:24;;;;;;;10.15;5.68;;;;;;;;;;5088400;28;20053;-54
2022/11/05 01:55:57;;;;;;;10.80;5.68;;;;;;;;;;5084267;28;20043;-52
2022/11/05 01:58:34;;;;;;;8.30;5.10;;;;;;;;;;5095603;28;20052;-51
2022/11/05 02:01:02;;;;;;;10.75;5.70;;;;;;;;;;5096264;28;20048;-51
2022/11/05 02:03:29;;;;;;;10.63;5.15;;;;;;;;;;5086387;28;20055;-54
2022/11/05 02:05:57;;;;;;;7.20;4.75;;;;;;;;;;5084707;28;20055;-54
2022/11/05 02:08:29;;;;;;;9.68;5.05;;;;;;;;;;5094187;28;20056;-53
2022/11/05 02:10:55;;;;;;;8.25;5.13;;;;;;;;;;5095464;28;20056;-51
2022/11/05 02:13:23;;;;;;;9.70;5.60;;;;;;;;;;5094609;28;20056;-54
2022/11/05 02:15:57;;;;;;;8.75;4.65;;;;;;;;;;5095356;28;20048;-52
2022/11/05 02:18:29;;;;;;;11.07;5.53;;;;;;;;;;5095268;28;20075;-51
2022/11/05 02:21:16;;;;;;;8.13;4.72;;;;;;;;;;5095621;28;20056;-52
2022/11/05 02:24:02;;;;;;;8.60;4.82;;;;;;;;;;5095070;28;20392;-52
2022/11/05 02:26:53;;;;;;;7.85;4.57;;;;;;;;;;5081302;28;20464;-51
2022/11/05 02:29:37;;;;;;;7.78;4.50;;;;;;;;;;5094748;28;20386;-51
2022/11/05 02:32:10;;;;;;;11.02;5.47;;;;;;;;;;5094998;28;20369;-51
2022/11/05 02:34:44;;;;;;;7.20;4.03;;;;;;;;;;5093873;28;20052;-54
2022/11/05 02:37:19;;;;;;;12.13;6.05;;;;;;;;;;5095095;28;20040;-53
2022/11/05 02:39:50;;;;;;;9.52;5.07;;;;;;;;;;5092232;28;20055;-54
2022/11/05 02:42:26;;;;;;;9.05;5.10;;;;;;;;;;5095020;28;20047;-51
2022/11/05 02:44:56;;;;;;;8.45;4.03;;;;;;;;;;5095033;28;20476;-52
2022/11/05 02:47:33;;;;;;;8.57;4.63;;;;;;;;;;5094668;28;20059;-50
2022/11/05 02:50:20;;;;;;;7.07;4.63;;;;;;;;;;5095161;28;20079;-52
2022/11/05 02:52:50;;;;;;;6.93;3.90;;;;;;;;;;5094824;28;20063;-51
2022/11/05 02:55:21;;;;;;;9.15;5.30;;;;;;;;;;5094269;28;20052;-53
2022/11/05 02:57:48;;;;;;;9.05;5.90;;;;;;;;;;5094577;28;20052;-54
2022/11/05 03:00:31;;;;;;;11.38;6.30;;;;;;;;;;5093207;28;20048;-51
2022/11/05 03:03:03;;;;;;;9.02;5.75;;;;;;;;;;5080541;28;20056;-51
2022/11/05 03:05:32;;;;;;;8.32;4.18;;;;;;;;;;5094622;28;20048;-51
2022/11/05 03:08:06;;;;;;;7.85;4.95;;;;;;;;;;5094847;28;20063;-54
2022/11/05 03:10:41;;;;;;;7.82;5.10;;;;;;;;;;5094536;28;20058;-52
2022/11/05 03:13:14;;;;;;;10.73;5.25;;;;;;;;;;5094238;28;20361;-50
2022/11/05 03:15:54;;;;;;;8.60;5.38;;;;;;;;;;5094227;28;20059;-51
2022/11/05 03:18:25;;;;;;;8.75;5.80;;;;;;;;;;5093706;28;20051;-54
2022/11/05 03:21:07;;;;;;;10.10;5.55;;;;;;;;;;5091676;28;20052;-57
2022/11/05 03:23:36;;;;;;;7.60;5.13;;;;;;;;;;5092331;28;20136;-57
2022/11/05 03:26:06;;;;;;;8.85;4.78;;;;;;;;;;5094170;28;20055;-57
2022/11/05 03:28:39;;;;;;;8.05;4.90;;;;;;;;;;5093982;28;20051;-57
2022/11/05 03:31:08;;;;;;;10.63;5.65;;;;;;;;;;5094535;28;20044;-57
2022/11/05 03:33:51;;;;;;;8.05;5.40;;;;;;;;;;5093839;28;20483;-56
2022/11/05 03:36:20;;;;;;;9.55;5.10;;;;;;;;;;5092549;28;20047;-57
2022/11/05 03:38:51;;;;;;;8.65;4.70;;;;;;;;;;5093597;28;20052;-57
2022/11/05 03:41:20;;;;;;;7.43;4.93;;;;;;;;;;5093864;28;20476;-56
2022/11/05 03:43:49;;;;;;;10.18;5.53;;;;;;;;;;5093729;28;20052;-57
2022/11/05 03:46:18;;;;;;;10.70;5.25;;;;;;;;;;5092973;28;20040;-57
2022/11/05 03:48:49;;;;;;;8.32;5.10;;;;;;;;;;5092119;28;20059;-57
2022/11/05 03:51:20;;;;;;;10.07;5.43;;;;;;;;;;5093537;28;20075;-57
2022/11/05 03:53:50;;;;;;;7.85;5.38;;;;;;;;;;5092665;28;20048;-57
2022/11/05 03:56:22;;;;;;;10.80;6.45;;;;;;;;;;5093376;28;20052;-57
2022/11/05 03:58:53;;;;;;;8.38;5.03;;;;;;;;;;5093276;28;20579;-56
2022/11/05 04:01:19;;;;;;;10.02;6.07;;;;;;;;;;5093598;28;20126;-56
2022/11/05 04:03:49;;;;;;;9.52;5.78;;;;;;;;;;5093492;28;20056;-57
2022/11/05 04:14:33;;;;;;;9.98;5.78;;;;;;;;;;5082610;28;20122;-57
2022/11/05 04:17:07;;;;;;;9.20;5.43;;;;;;;;;;5093320;28;20063;-57
2022/11/05 04:25:14;;;;;;;12.48;6.45;;;;;;;;;;5093023;28;20062;-57
2022/11/05 04:27:42;;;;;;;10.82;6.72;;;;;;;;;;5092773;28;20360;-57
2022/11/05 04:30:19;;;;;;;10.13;6.50;;;;;;;;;;5092931;28;20438;-57
2022/11/05 04:33:07;;;;;;;11.85;6.85;;;;;;;;;;5092904;28;20046;-57
2022/11/05 04:35:48;;;;;;;9.90;5.35;;;;;;;;;;5081525;28;20048;-54
2022/11/05 04:38:24;;;;;;;9.43;5.10;;;;;;;;;;5092996;28;20777;-57
2022/11/05 04:40:50;;;;;;;9.07;5.95;;;;;;;;;;5093065;28;20059;-57
2022/11/05 04:43:19;;;;;;;11.18;5.28;;;;;;;;;;5093006;28;20048;-57
2022/11/05 04:45:47;;;;;;;10.32;5.13;;;;;;;;;;5092917;28;20286;-57
2022/11/05 04:48:14;;;;;;;10.60;5.75;;;;;;;;;;5092522;28;20056;-56
2022/11/05 04:50:56;;;;;;;10.85;5.88;;;;;;;;;;5092715;28;20055;-57
2022/11/05 04:53:26;;;;;;;10.25;5.78;;;;;;;;;;5092845;28;20055;-56
2022/11/05 04:55:56;;;;;;;9.05;5.63;;;;;;;;;;5092646;28;20051;-56
2022/11/05 04:58:23;;;;;;;11.23;6.57;;;;;;;;;;5092892;28;20048;-56
2022/11/05 05:00:50;;;;;;;11.90;5.82;;;;;;;;;;5090387;28;20058;-54
2022/11/05 05:03:18;;;;;;;9.60;5.38;;;;;;;;;;5092473;28;20052;-57
2022/11/05 05:05:58;;;;;;;11.30;6.45;;;;;;;;;;5092698;28;20051;-56
2022/11/05 05:08:28;;;;;;;11.90;6.38;;;;;;;;;;5092646;28;20059;-57
2022/11/05 05:10:55;;;;;;;8.55;5.55;;;;;;;;;;5092443;28;20525;-57
2022/11/05 05:13:22;;;;;;;10.95;6.18;;;;;;;;;;5092365;28;20522;-57
2022/11/05 05:15:48;;;;;;;10.23;5.35;;;;;;;;;;5092563;28;20054;-56
2022/11/05 05:18:16;;;;;;;9.50;5.53;;;;;;;;;;5092615;28;20052;-56
2022/11/05 05:23:33;;;;;;;10.73;6.03;;;;;;;;;;5081020;28;20056;-57
2022/11/05 05:26:00;;;;;;;11.30;5.90;;;;;;;;;;5092631;28;20048;-55
2022/11/05 05:28:26;;;;;;;9.05;5.45;;;;;;;;;;5086906;28;20408;-57
2022/11/05 05:30:56;;;;;;;8.73;5.32;;;;;;;;;;5092510;28;20048;-57
2022/11/05 05:33:23;;;;;;;10.30;6.10;;;;;;;;;;5092206;28;20207;-57
2022/11/05 05:35:51;;;;;;;11.80;7.25;;;;;;;;;;5092612;28;20044;-57
2022/11/05 05:38:18;;;;;;;14.05;6.43;;;;;;;;;;5092493;28;20040;-57
2022/11/05 05:40:56;;;;;;;9.85;5.78;;;;;;;;;;5092500;28;20063;-57
2022/11/05 05:43:23;;;;;;;11.00;6.82;;;;;;;;;;5092168;28;20056;-57
2022/11/05 05:45:50;;;;;;;13.57;6.57;;;;;;;;;;5092128;28;20472;-57
2022/11/05 05:48:16;;;;;;;10.65;6.28;;;;;;;;;;5090073;28;20366;-57
2022/11/05 05:50:43;;;;;;;11.70;6.38;;;;;;;;;;5084281;28;20063;-57
2022/11/05 05:53:13;;;;;;;9.85;5.70;;;;;;;;;;5092414;28;20051;-57
2022/11/05 05:55:39;;;;;;;13.10;6.43;;;;;;;;;;5092346;28;20051;-57
2022/11/05 05:58:14;;;;;;;11.02;5.95;;;;;;;;;;5092254;28;20044;-57
2022/11/05 06:00:42;;;;;;;9.37;6.00;;;;;;;;;;5088420;28;20048;-56
2022/11/05 06:03:10;;;;;;;10.25;6.15;;;;;;;;;;5092046;28;20052;-56
2022/11/05 06:05:40;;;;;;;8.45;5.55;;;;;;;;;;5092022;28;20044;-57
2022/11/05 06:08:09;;;;;;;10.63;6.20;;;;;;;;;;5091877;28;20362;-57
2022/11/05 06:10:37;;;;;;;8.88;5.07;;;;;;;;;;5089723;28;20075;-57
2022/11/05 06:13:04;;;;;;;8.73;5.18;;;;;;;;;;5091440;28;20056;-57
2022/11/05 06:15:44;;;;;;;8.95;5.50;;;;;;;;;;5091714;28;20435;-57
2022/11/05 06:18:10;;;;;;;8.10;5.20;;;;;;;;;;5095679;28;20059;-57
2022/11/05 06:20:38;;;;;;;8.85;5.20;;;;;;;;;;5095396;28;20056;-57
2022/11/05 06:23:08;;;;;;;8.15;5.07;;;;;;;;;;5095305;28;20059;-57
2022/11/05 06:25:35;;;;;;;8.20;5.43;;;;;;;;;;5095036;28;20068;-54
2022/11/05 06:28:03;;;;;;;7.13;4.75;;;;;;;;;;5094749;28;20063;-56
2022/11/05 06:30:29;;;;;;;7.97;4.60;;;;;;;;;;5094521;28;20581;-55
2022/11/05 06:33:02;;;;;;;7.72;4.85;;;;;;;;;;5095145;28;20047;-57
2022/11/05 06:35:29;;;;;;;10.02;5.75;;;;;;;;;;5095103;28;20429;-57
2022/11/05 06:37:58;;;;;;;7.93;4.85;;;;;;;;;;5094494;28;20441;-57
2022/11/05 06:40:26;;;;;;;7.13;4.55;;;;;;;;;;5094711;28;20044;-53
2022/11/05 06:42:54;;;;;;;8.60;4.55;;;;;;;;;;5094847;28;20468;-57
2022/11/05 06:45:23;;;;;;;7.93;4.30;;;;;;;;;;5094908;28;20051;-57
2022/11/05 06:47:55;;;;;;;7.07;4.45;;;;;;;;;;5094320;28;20054;-57
2022/11/05 06:50:22;;;;;;;9.05;4.95;;;;;;;;;;5094161;28;20528;-56
2022/11/05 06:52:55;;;;;;;8.10;5.38;;;;;;;;;;5091300;28;20045;-56
2022/11/05 06:55:24;;;;;;;9.63;5.22;;;;;;;;;;5087184;28;20464;-57
2022/11/05 06:57:52;;;;;;;11.57;5.68;;;;;;;;;;5095065;28;20419;-56
2022/11/05 07:00:28;;;;;;;10.80;5.70;;;;;;;;;;5094632;28;20060;-57
2022/11/05 07:02:58;;;;;;;10.63;5.85;;;;;;;;;;5082800;28;20471;-56
2022/11/05 07:05:28;;;;;;;10.60;6.03;;;;;;;;;;5094626;28;20052;-56
2022/11/05 07:07:55;;;;;;;9.65;5.97;;;;;;;;;;5095008;28;20058;-57
2022/11/05 07:10:22;;;;;;;11.63;6.20;;;;;;;;;;5093086;28;20056;-57
2022/11/05 07:12:49;;;;;;;7.47;4.70;;;;;;;;;;5094699;28;20048;-55
2022/11/05 07:15:19;;;;;;;10.70;6.13;;;;;;;;;;5094761;28;20055;-57
2022/11/05 07:17:46;;;;;;;10.75;5.75;;;;;;;;;;5094549;28;20051;-57
2022/11/05 07:20:13;;;;;;;9.95;4.93;;;;;;;;;;5085577;28;20040;-57
2022/11/05 07:22:43;;;;;;;10.00;5.80;;;;;;;;;;5092231;28;20056;-53
2022/11/05 07:25:09;;;;;;;10.30;6.53;;;;;;;;;;5094398;28;20068;-57
2022/11/05 07:27:41;;;;;;;10.60;6.22;;;;;;;;;;5093954;28;20056;-57
2022/11/05 07:30:11;;;;;;;12.55;6.85;;;;;;;;;;5094354;28;20048;-57
2022/11/05 07:32:40;;;;;;;11.80;6.70;;;;;;;;;;5094490;28;20088;-57
2022/11/05 07:35:08;;;;;;;12.60;6.90;;;;;;;;;;5094280;28;20048;-56
2022/11/05 07:37:47;;;;;;;11.95;6.82;;;;;;;;;;5094363;28;20055;-57
2022/11/05 07:40:16;;;;;;;15.30;7.20;;;;;;;;;;5093707;28;20055;-57
2022/11/05 07:42:54;;;;;;;11.77;7.28;;;;;;;;;;5093505;28;20380;-57
2022/11/05 07:45:23;;;;;;;14.40;8.18;;;;;;;;;;5094213;28;20064;-56
2022/11/05 07:47:52;;;;;;;12.52;7.03;;;;;;;;;;5093278;28;20056;-57
2022/11/05 07:50:30;;;;;;;13.73;8.20;;;;;;;;;;5094218;28;20048;-57
2022/11/05 07:53:06;;;;;;;13.13;7.32;;;;;;;;;;5093699;28;20048;-57
2022/11/05 07:55:34;;;;;;;14.95;8.80;;;;;;;;;;5093595;28;20065;-55
2022/11/05 07:58:01;;;;;;;16.63;8.65;;;;;;;;;;5093865;28;20071;-56
2022/11/05 08:00:32;;;;;;;14.02;8.60;;;;;;;;;;5092977;28;20056;-57
2022/11/05 08:03:03;;;;;;;12.77;6.97;;;;;;;;;;5093331;28;20052;-57
2022/11/05 08:05:33;;;;;;;14.88;7.97;;;;;;;;;;5094045;28;20056;-57
2022/11/05 08:08:15;;;;;;;14.10;7.32;;;;;;;;;;5093608;28;20125;-54
2022/11/05 08:10:43;;;;;;;16.58;8.07;;;;;;;;;;5093663;28;20052;-57
2022/11/05 08:13:12;;;;;;;13.65;7.90;;;;;;;;;;5093298;28;20059;-54
2022/11/05 08:15:39;;;;;;;13.75;7.85;;;;;;;;;;5093613;28;20055;-53
2022/11/05 08:18:10;;;;;;;13.07;7.10;;;;;;;;;;5093351;28;20059;-55
2022/11/05 08:20:40;;;;;;;15.35;8.90;;;;;;;;;;5092328;28;20055;-57
2022/11/05 08:23:20;;;;;;;13.68;6.65;;;;;;;;;;5093416;28;20044;-53
2022/11/05 08:25:47;;;;;;;14.80;7.72;;;;;;;;;;5089900;28;20048;-53
2022/11/05 08:28:15;;;;;;;13.52;7.50;;;;;;;;;;5088893;28;20053;-55
2022/11/05 08:30:43;;;;;;;14.82;7.90;;;;;;;;;;5093521;28;20067;-58
2022/11/05 08:33:14;;;;;;;18.15;8.32;;;;;;;;;;5082903;28;20052;-58
2022/11/05 08:35:41;;;;;;;11.75;6.45;;;;;;;;;;5092364;28;20485;-58
2022/11/05 08:38:14;;;;;;;13.38;8.10;;;;;;;;;;5091430;28;20044;-58
2022/11/05 08:40:45;;;;;;;17.48;8.02;;;;;;;;;;5093230;28;20052;-58
2022/11/05 08:43:12;;;;;;;11.60;7.15;;;;;;;;;;5092888;28;20102;-58
2022/11/05 08:45:39;;;;;;;13.95;8.10;;;;;;;;;;5093181;28;20354;-58
2022/11/05 08:48:08;;;;;;;12.18;6.72;;;;;;;;;;5092732;28;20051;-58
2022/11/05 08:50:35;;;;;;;14.98;8.18;;;;;;;;;;5085317;28;20451;-58
2022/11/05 08:53:05;;;;;;;12.65;6.63;;;;;;;;;;5092811;28;20108;-57
2022/11/05 08:55:35;;;;;;;13.80;7.82;;;;;;;;;;5092528;28;20076;-57
2022/11/05 08:58:03;;;;;;;14.95;7.97;;;;;;;;;;5092536;28;20101;-58
2022/11/05 09:00:35;;;;;;;14.50;8.18;;;;;;;;;;5092006;28;20507;-56
2022/11/05 09:03:04;;;;;;;16.95;9.05;;;;;;;;;;5092639;28;20539;-57
2022/11/05 09:05:36;;;;;;;14.13;7.25;;;;;;;;;;5092645;28;20062;-57
2022/11/05 09:08:04;;;;;;;13.35;6.82;;;;;;;;;;5092290;28;20469;-57
2022/11/05 09:10:33;;;;;;;13.82;7.85;;;;;;;;;;5092146;28;20063;-58
2022/11/05 09:13:04;;;;;;;14.70;7.57;;;;;;;;;;5092872;28;20048;-58
2022/11/05 09:15:32;;;;;;;13.38;6.97;;;;;;;;;;5090998;28;20135;-57
2022/11/05 09:18:00;;;;;;;10.98;6.22;;;;;;;;;;5091335;28;20040;-57
2022/11/05 09:20:29;;;;;;;14.45;8.38;;;;;;;;;;5091559;28;20043;-58
2022/11/05 09:22:57;;;;;;;11.20;6.18;;;;;;;;;;5090222;28;20055;-55
2022/11/05 09:25:25;;;;;;;14.73;7.65;;;;;;;;;;5090095;28;20435;-57
2022/11/05 09:27:51;;;;;;;12.73;7.40;;;;;;;;;;5090823;28;20040;-57
2022/11/05 09:30:34;;;;;;;15.57;8.38;;;;;;;;;;5091498;28;20044;-56
2022/11/05 09:33:02;;;;;;;17.77;8.30;;;;;;;;;;5091408;28;20047;-57
2022/11/05 09:35:30;;;;;;;14.80;7.18;;;;;;;;;;5079547;28;20048;-57
2022/11/05 09:37:56;;;;;;;16.13;7.32;;;;;;;;;;5091127;28;20047;-56
2022/11/05 09:40:25;;;;;;;13.25;7.55;;;;;;;;;;5090792;28;20381;-57
2022/11/05 09:42:55;;;;;;;15.90;7.93;;;;;;;;;;5088963;28;20048;-56
2022/11/05 09:45:36;;;;;;;14.05;7.57;;;;;;;;;;5090331;28;20063;-57
2022/11/05 09:48:07;;;;;;;15.98;7.55;;;;;;;;;;5085696;28;20453;-58
2022/11/05 09:50:43;;;;;;;15.45;8.05;;;;;;;;;;5089209;28;20080;-58
2022/11/05 09:53:16;;;;;;;15.82;7.85;;;;;;;;;;5087408;28;20048;-55
2022/11/05 09:55:45;;;;;;;13.95;7.72;;;;;;;;;;5096353;28;20046;-54
2022/11/05 09:58:16;;;;;;;11.35;6.03;;;;;;;;;;5094385;28;20051;-54
2022/11/05 10:00:51;;;;;;;9.38;4.80;;;;;;;;;;5095193;28;20057;-54
2022/11/05 10:03:20;;;;;;;;;;;;;;;;;;5093769;28;20051;-55
2022/11/05 10:05:47;;;;;;;8.05;4.05;;;;;;;;;;5092559;28;19982;-51
2022/11/05 10:08:18;;;;;;;7.90;4.20;;;;;;;;;;5090072;28;20052;-54
2022/11/05 10:10:48;;;;;;;6.03;3.08;;;;;;;;;;5098601;28;20055;-54
2022/11/05 10:13:23;;;;;;;4.13;2.78;;;;;;;;;;5095901;28;20062;-51
2022/11/05 10:15:58;;;;;;;5.53;2.88;;;;;;;;;;5095952;28;20051;-54
2022/11/05 10:18:28;;;;;;;5.25;3.22;;;;;;;;;;5095794;28;20431;-51
2022/11/05 10:21:06;;;;;;;4.20;2.40;;;;;;;;;;5095308;28;20048;-54
2022/11/05 10:23:33;;;;;;;6.85;2.75;;;;;;;;;;5090858;28;20136;-53
2022/11/05 10:26:04;;;;;;;3.83;1.92;;;;;;;;;;5095766;28;20055;-53
2022/11/05 10:28:33;;;;;;;5.03;1.83;;;;;;;;;;5095724;28;20051;-54
2022/11/05 10:31:05;;;;;;;4.30;1.95;;;;;;;;;;5096097;28;20078;-51
2022/11/05 10:33:34;;;;;;;5.85;2.38;;;;;;;;;;5088537;28;20261;-52
2022/11/05 10:36:13;;;;;;;4.30;2.17;;;;;;;;;;5090477;28;20048;-51
2022/11/05 10:38:42;;;;;;;3.83;2.15;;;;;;;;;;5094572;28;20055;-51
2022/11/05 10:41:22;;;;;;;4.00;1.52;;;;;;;;;;5089970;28;20059;-51
2022/11/05 10:43:50;;;;;;;5.78;2.28;;;;;;;;;;5094493;28;20047;-52
2022/11/05 10:46:28;;;;;;;3.63;1.92;;;;;;;;;;5095175;28;20062;-55
2022/11/05 10:49:07;;;;;;;3.00;1.48;;;;;;;;;;5092388;28;20464;-51
2022/11/05 10:51:34;;;;;;;7.15;2.00;;;;;;;;;;5094451;28;20056;-52
2022/11/05 10:54:06;;;;;;;4.10;1.85;;;;;;;;;;5092318;28;20044;-51
2022/11/05 10:56:38;;;;;;;3.28;1.52;;;;;;;;;;5089817;28;20052;-54
2022/11/05 10:59:06;;;;;;;4.65;1.98;;;;;;;;;;5094315;28;20059;-53
2022/11/05 11:01:43;;;;;;;4.53;1.30;;;;;;;;;;5094323;28;20070;-52
2022/11/05 11:04:16;;;;;;;4.57;1.98;;;;;;;;;;5092625;28;20366;-51
2022/11/05 11:06:51;;;;;;;5.35;1.50;;;;;;;;;;5094622;28;20058;-52
2022/11/05 11:09:20;;;;;;;6.60;1.52;;;;;;;;;;5094013;28;20040;-51
2022/11/05 11:11:54;;;;;;;4.50;1.48;;;;;;;;;;5093977;28;20052;-51
2022/11/05 11:14:21;;;;;;;6.07;1.73;;;;;;;;;;5093199;28;20048;-51
2022/11/05 11:16:56;;;;;;;1.65;0.88;;;;;;;;;;5093252;28;20044;-53
2022/11/05 11:19:27;;;;;;;2.30;1.03;;;;;;;;;;5092865;28;20400;-51
2022/11/05 11:22:20;;;;;;;1.40;0.60;;;;;;;;;;5093261;28;20047;-51
2022/11/05 11:24:52;;;;;;;3.33;1.02;;;;;;;;;;5053589;28;20632;-52
2022/11/05 11:27:22;;;;;;;3.20;1.27;;;;;;;;;;5093958;28;20543;-50
2022/11/05 11:29:55;;;;;;;3.08;1.02;;;;;;;;;;5093149;28;20059;-53
2022/11/05 11:32:37;;;;;;;5.68;1.05;;;;;;;;;;5079354;28;20044;-54
2022/11/05 11:35:07;;;;;;;4.78;1.20;;;;;;;;;;5092686;28;20047;-53
2022/11/05 11:37:40;;;;;;;4.45;1.02;;;;;;;;;;5092797;28;20056;-53
2022/11/05 11:40:14;;;;;;;6.20;1.33;;;;;;;;;;5092167;28;20072;-52
2022/11/05 11:42:43;;;;;;;1.20;0.60;;;;;;;;;;5086175;28;20054;-54
2022/11/05 11:45:18;;;;;;;3.40;0.85;;;;;;;;;;5092442;28;20052;-53
2022/11/05 11:47:48;;;;;;;2.03;0.93;;;;;;;;;;5090540;28;20063;-54
2022/11/05 11:50:31;;;;;;;3.25;0.90;;;;;;;;;;5093661;28;20060;-54
2022/11/05 11:53:13;;;;;;;2.72;0.70;;;;;;;;;;5092829;28;20059;-51
2022/11/05 11:55:44;;;;;;;3.13;0.90;;;;;;;;;;5093271;28;20658;-54
2022/11/05 11:58:11;;;;;;;3.25;0.68;;;;;;;;;;5093829;28;20071;-54
2022/11/05 12:00:47;;;;;;;2.17;1.20;;;;;;;;;;5093291;28;20055;-50
2022/11/05 12:03:21;;;;;;;3.47;1.00;;;;;;;;;;5093799;28;20047;-53
2022/11/05 12:05:53;;;;;;;4.05;0.88;;;;;;;;;;5093761;28;20044;-51
2022/11/05 12:08:44;;;;;;;1.60;0.90;;;;;;;;;;5092901;28;20043;-52
2022/11/05 12:11:14;;;;;;;3.58;1.13;;;;;;;;;;5090429;28;20477;-54
2022/11/05 12:14:01;;;;;;;8.98;1.38;;;;;;;;;;5092326;28;20052;-53
2022/11/05 12:16:49;;;;;;;2.67;1.08;;;;;;;;;;5092674;28;20053;-55
2022/11/05 12:19:24;;;;;;;4.53;0.90;;;;;;;;;;5092940;28;20051;-53
2022/11/05 12:21:56;;;;;;;3.55;1.50;;;;;;;;;;5093174;28;20048;-54
2022/11/05 12:24:42;;;;;;;2.55;1.25;;;;;;;;;;5092930;28;20484;-55
2022/11/05 12:27:23;;;;;;;3.47;1.50;;;;;;;;;;5092997;28;20053;-55
2022/11/05 12:29:56;;;;;;;5.75;1.83;;;;;;;;;;5093137;28;20132;-54
2022/11/05 12:32:43;;;;;;;7.60;2.60;;;;;;;;;;5091067;28;20055;-55
2022/11/05 12:35:19;;;;;;;4.78;1.88;;;;;;;;;;5093230;28;20052;-55
2022/11/05 12:37:50;;;;;;;5.35;1.50;;;;;;;;;;5093073;28;20044;-51
2022/11/05 12:40:34;;;;;;;13.10;1.92;;;;;;;;;;5081479;28;20052;-51
2022/11/05 12:43:11;;;;;;;4.32;1.60;;;;;;;;;;5089676;28;20052;-54
2022/11/05 12:45:44;;;;;;;4.88;1.70;;;;;;;;;;5092978;28;20055;-54
2022/11/05 12:48:18;;;;;;;4.75;1.42;;;;;;;;;;5092495;28;20048;-54
2022/11/05 12:50:50;;;;;;;2.95;1.27;;;;;;;;;;5092456;28;20477;-54
2022/11/05 12:53:39;;;;;;;5.18;1.42;;;;;;;;;;5082979;28;20501;-54
2022/11/05 12:56:10;;;;;;;8.18;1.50;;;;;;;;;;5086804;28;20063;-55
2022/11/05 12:58:40;;;;;;;4.60;1.80;;;;;;;;;;5092570;28;20040;-54
2022/11/05 13:01:11;;;;;;;3.03;1.75;;;;;;;;;;5089446;28;20048;-55
2022/11/05 13:03:42;;;;;;;6.30;2.15;;;;;;;;;;5092944;28;20048;-55
2022/11/05 13:06:19;;;;;;;5.82;2.60;;;;;;;;;;5092299;28;20134;-54
2022/11/05 13:08:48;;;;;;;4.60;1.83;;;;;;;;;;5092105;28;20044;-53
2022/11/05 13:11:19;;;;;;;6.60;2.10;;;;;;;;;;5092201;28;20043;-55
2022/11/05 13:13:48;;;;;;;7.00;1.63;;;;;;;;;;5092171;28;20051;-55
2022/11/05 13:16:19;;;;;;;5.18;1.63;;;;;;;;;;5092357;28;20044;-54
2022/11/05 13:18:48;;;;;;;3.35;1.35;;;;;;;;;;5092260;28;20075;-51
2022/11/05 13:21:27;;;;;;;2.20;0.82;;;;;;;;;;5095946;28;20439;-54
2022/11/05 13:23:58;;;;;;;6.43;1.30;;;;;;;;;;5089426;28;20450;-54
2022/11/05 13:26:36;;;;;;;6.85;1.48;;;;;;;;;;5088759;28;20077;-51
2022/11/05 13:29:05;;;;;;;4.07;1.00;;;;;;;;;;5090067;28;20451;-50
2022/11/05 13:31:36;;;;;;;3.28;0.95;;;;;;;;;;5096135;28;20066;-50
2022/11/05 13:34:15;;;;;;;4.60;1.00;;;;;;;;;;5096281;28;20044;-50
2022/11/05 13:39:49;;;;;;;4.82;1.52;;;;;;;;;;5085896;28;20112;-55
2022/11/05 13:42:38;;;;;;;2.58;0.95;;;;;;;;;;5095537;28;20048;-54
2022/11/05 13:45:18;;;;;;;5.22;1.27;;;;;;;;;;5095295;28;20048;-54
2022/11/05 13:48:10;;;;;;;8.20;1.38;;;;;;;;;;5094316;28;20063;-54
2022/11/05 13:50:46;;;;;;;5.95;1.15;;;;;;;;;;5092704;28;20048;-50
2022/11/05 13:53:31;;;;;;;7.15;1.45;;;;;;;;;;5095981;28;20048;-49
2022/11/05 13:56:05;;;;;;;4.55;1.48;;;;;;;;;;5096164;28;20047;-49
2022/11/05 13:59:07;;;;;;;;;;;;;;;;;;;;;
2022/11/05 14:01:42;;;;;;;9.77;2.05;;;;;;;;;;5065088;28;20091;-49
2022/11/05 14:04:14;;;;;;;3.83;1.73;;;;;;;;;;5094221;28;20491;-48
2022/11/05 14:06:42;;;;;;;4.97;2.28;;;;;;;;;;5094910;28;20062;-48
2022/11/05 14:09:18;;;;;;;4.90;1.70;;;;;;;;;;5094178;28;20711;-51
2022/11/05 14:11:50;;;;;;;4.43;1.48;;;;;;;;;;5093939;28;20067;-49
2022/11/05 14:14:18;;;;;;;4.78;1.52;;;;;;;;;;5093934;28;20452;-49
2022/11/05 14:16:51;;;;;;;7.45;1.40;;;;;;;;;;5094773;28;20047;-49
2022/11/05 14:19:32;;;;;;;4.78;1.40;;;;;;;;;;5094684;28;20044;-49
2022/11/05 14:22:02;;;;;;;7.45;1.42;;;;;;;;;;5094407;28;20047;-48
2022/11/05 14:24:43;;;;;;;8.45;1.40;;;;;;;;;;5094521;28;20127;-49
2022/11/05 14:27:42;;;;;;;7.35;1.98;;;;;;;;;;5093663;28;20472;-49
2022/11/05 14:30:28;;;;;;;5.03;1.60;;;;;;;;;;5010850;28;20061;-51
2022/11/05 14:33:02;;;;;;;7.00;2.83;;;;;;;;;;5002540;28;20049;-52
2022/11/05 14:35:37;;;;;;;9.23;3.15;;;;;;;;;;4995424;28;20062;-48
2022/11/05 14:38:06;;;;;;;7.63;2.72;;;;;;;;;;5008245;28;20050;-49
2022/11/05 14:40:36;;;;;;;7.13;3.00;;;;;;;;;;5007529;28;20046;-51
2022/11/05 14:43:06;;;;;;;6.05;3.22;;;;;;;;;;5012765;28;20387;-48
2022/11/05 14:45:32;;;;;;;9.30;2.72;;;;;;;;;;5013057;28;20057;-48
2022/11/05 14:48:04;;;;;;;9.88;3.40;;;;;;;;;;5012343;28;20058;-49
2022/11/05 14:50:35;;;;;;;13.38;4.40;;;;;;;;;;5021275;28;20055;-49
2022/11/05 14:53:08;;;;;;;9.48;3.83;;;;;;;;;;5093545;28;20059;-48
2022/11/05 14:55:39;;;;;;;11.02;4.72;;;;;;;;;;5094386;28;20047;-49
2022/11/05 14:58:23;;;;;;;11.43;4.82;;;;;;;;;;5094596;28;20044;-49
2022/11/05 15:00:50;;;;;;;9.43;4.70;;;;;;;;;;5085571;28;20487;-49
2022/11/05 15:03:33;;;;;;;15.20;6.32;;;;;;;;;;5093911;28;20373;-49
2022/11/05 15:06:22;;;;;;;16.02;6.43;;;;;;;;;;5092593;28;20059;-50
2022/11/05 15:09:04;;;;;;;12.30;6.32;;;;;;;;;;5053250;28;20131;-49
2022/11/05 15:11:37;;;;;;;15.48;6.70;;;;;;;;;;5093790;28;20048;-49
2022/11/05 15:14:06;;;;;;;13.10;5.63;;;;;;;;;;5081414;28;20105;-49
2022/11/05 15:16:36;;;;;;;18.90;7.38;;;;;;;;;;5093925;28;20044;-50
2022/11/05 15:19:11;;;;;;;14.98;5.78;;;;;;;;;;5094321;28;20184;-49
2022/11/05 15:21:40;;;;;;;;;;;;;;;;;;5094494;28;20056;-49
2022/11/05 15:24:11;;;;;;;9.73;4.70;;;;;;;;;;5093996;28;19924;-50
2022/11/05 15:26:48;;;;;;;10.30;4.80;;;;;;;;;;5094450;28;20048;-49
2022/11/05 15:29:23;;;;;;;24.67;11.43;;;;;;;;;;5091021;28;20348;-51
2022/11/05 15:31:52;;;;;;;17.13;9.23;;;;;;;;;;5090396;28;20067;-50
2022/11/05 15:34:22;;;;;;;28.45;12.10;;;;;;;;;;5093470;28;20048;-49
2022/11/05 15:36:51;;;;;;;28.75;14.50;;;;;;;;;;5093418;28;20048;-48
2022/11/05 15:39:25;;;;;;;105.20;34.40;;;;;;;;;;5093935;28;20040;-49
2022/11/05 15:41:54;;;;;;;64.88;24.85;;;;;;;;;;5088669;28;20083;-48
2022/11/05 15:44:31;;;;;;;99.43;34.40;;;;;;;;;;5093533;28;20057;-49
2022/11/05 15:47:09;;;;;;;159.57;49.42;;;;;;;;;;5093618;28;20117;-49
2022/11/05 15:49:37;;;;;;;163.30;51.85;;;;;;;;;;5092324;28;20135;-49
2022/11/05 15:52:07;;;;;;;168.70;50.78;;;;;;;;;;5093206;28;20048;-49